Time;durP1;ratioP1;P1;durP2;ratioP2;P2;SDS_P1;SDS_P2;PMS_P1;PMS_P2;Temp;Humidity;BMP_temperature;BMP_pressure;BME280_temperature;BME280_humidity;BME280_pressure;Samples;Min_cycle;Max_cycle;Signal;HPM_P1;HPM_P2
2022/08/06 05:03:07;;;;;;;;;;;19.20;84.80;;;;;;5135193;23;20002;-76
2022/08/06 05:05:45;;;;;;;;;;;19.30;84.60;;;;;;4891159;29;19907;-76
2022/08/06 05:08:11;;;;;;;;;;;19.30;84.60;;;;;;4891303;29;19956;-75
2022/08/06 05:10:40;;;;;;;;;;;19.40;84.70;;;;;;4874105;29;19934;-76
2022/08/06 05:13:08;;;;;;;;;;;19.40;84.20;;;;;;4891288;29;19998;-75
2022/08/06 05:15:39;;;;;;;;;;;19.50;84.00;;;;;;4873553;29;19979;-75
2022/08/06 05:18:10;;;;;;;;;;;19.50;84.30;;;;;;4889117;29;19911;-76
2022/08/06 05:20:38;;;;;;;;;;;19.40;84.40;;;;;;4872808;29;19912;-76
2022/08/06 05:23:12;;;;;;;;;;;19.40;84.60;;;;;;4872984;29;19962;-76
2022/08/06 05:25:38;;;;;;;;;;;19.40;84.80;;;;;;4888782;29;19943;-76
2022/08/06 05:28:05;;;;;;;;;;;19.30;85.00;;;;;;4888892;29;19911;-76
2022/08/06 05:30:30;;;;;;;;;;;19.30;85.30;;;;;;4888448;29;19912;-75
2022/08/06 05:32:56;;;;;;;;;;;19.20;85.20;;;;;;4886819;29;19922;-75
2022/08/06 05:35:21;;;;;;;;;;;19.20;85.50;;;;;;4887552;29;19935;-75
2022/08/06 05:37:47;;;;;;;;;;;19.20;85.30;;;;;;4886711;29;19919;-75
2022/08/06 05:40:13;;;;;;;;;;;19.20;85.50;;;;;;4887432;29;19911;-75
2022/08/06 05:42:38;;;;;;;;;;;19.20;85.80;;;;;;4886920;29;19912;-76
2022/08/06 05:45:05;;;;;;;;;;;19.20;85.90;;;;;;4886832;29;19920;-75
2022/08/06 05:47:34;;;;;;;;;;;19.20;86.20;;;;;;4869610;29;19933;-76
2022/08/06 05:50:14;;;;;;;;;;;19.10;86.40;;;;;;4885905;29;19912;-75
2022/08/06 05:52:52;;;;;;;;;;;19.20;86.10;;;;;;4886988;29;19918;-76
2022/08/06 05:55:24;;;;;;;;;;;19.10;87.00;;;;;;4886789;29;19952;-76
2022/08/06 05:58:01;;;;;;;;;;;19.10;86.40;;;;;;4885996;29;19991;-77
2022/08/06 06:00:29;;;;;;;;;;;19.10;86.50;;;;;;4885941;29;19912;-75
2022/08/06 06:02:55;;;;;;;;;;;19.10;86.60;;;;;;4898971;29;19982;-76
2022/08/06 06:05:22;;;;;;;;;;;19.20;86.90;;;;;;4903647;29;19911;-77
2022/08/06 06:07:49;;;;;;;;;;;19.40;86.70;;;;;;4902774;29;20140;-76
2022/08/06 06:10:15;;;;;;;;;;;19.50;85.90;;;;;;4904672;29;20114;-76
2022/08/06 06:12:41;;;;;;;;;;;19.50;85.70;;;;;;4886343;29;20224;-75
2022/08/06 06:15:10;;;;;;;;;;;19.60;85.40;;;;;;4902675;29;20114;-76
2022/08/06 06:17:41;;;;;;;;;;;19.60;85.40;;;;;;4886413;29;20192;-76
2022/08/06 06:20:22;;;;;;;;;;;19.70;85.40;;;;;;4903000;29;19975;-76
2022/08/06 06:23:00;;;;;;;;;;;19.80;85.60;;;;;;4904925;29;19915;-77
2022/08/06 06:25:33;;;;;;;;;;;19.90;84.60;;;;;;4905141;29;19912;-76
2022/08/06 06:28:02;;;;;;;;;;;19.90;84.30;;;;;;4904425;29;20291;-76
2022/08/06 06:30:38;;;;;;;;;;;19.80;83.90;;;;;;4903465;29;20011;-76
2022/08/06 06:33:04;;;;;;;;;;;19.90;84.30;;;;;;4902522;29;19975;-79
2022/08/06 06:35:33;;;;;;;;;;;19.90;84.10;;;;;;4904269;29;19919;-77
2022/08/06 06:38:16;;;;;;;;;;;19.80;83.90;;;;;;4902673;29;20136;-75
2022/08/06 06:41:00;;;;;;;;;;;19.90;84.10;;;;;;4903143;29;19978;-76
2022/08/06 06:43:33;;;;;;;;;;;20.10;84.00;;;;;;4903192;29;19911;-76
2022/08/06 06:45:59;;;;;;;;;;;20.10;83.50;;;;;;4884692;29;19934;-76
2022/08/06 06:48:35;;;;;;;;;;;20.20;82.80;;;;;;4885103;29;20185;-78
2022/08/06 06:51:03;;;;;;;;;;;20.20;83.10;;;;;;4901797;29;19998;-75
2022/08/06 06:53:33;;;;;;;;;;;20.20;82.80;;;;;;4902863;29;19911;-80
2022/08/06 06:56:00;;;;;;;;;;;20.30;83.20;;;;;;4868682;29;19919;-75
2022/08/06 06:58:34;;;;;;;;;;;20.40;82.50;;;;;;4902199;29;19987;-77
2022/08/06 07:01:01;;;;;;;;;;;20.40;82.30;;;;;;4901380;29;19912;-76
2022/08/06 07:03:28;;;;;;;;;;;20.60;82.30;;;;;;4884444;29;19919;-76
2022/08/06 07:05:55;;;;;;;;;;;20.70;81.70;;;;;;4900924;29;19931;-76
2022/08/06 07:08:22;;;;;;;;;;;20.70;81.50;;;;;;4903654;29;19918;-76
2022/08/06 07:10:48;;;;;;;;;;;20.90;81.30;;;;;;4903009;29;19912;-75
2022/08/06 07:13:14;;;;;;;;;;;21.00;81.40;;;;;;4903569;29;19907;-75
2022/08/06 07:15:40;;;;;;;;;;;21.10;80.50;;;;;;4901691;29;19920;-79
2022/08/06 07:18:06;;;;;;;;;;;21.20;80.40;;;;;;4900279;29;19918;-77
2022/08/06 07:20:33;;;;;;;;;;;21.20;79.80;;;;;;4901615;29;19911;-77
2022/08/06 07:22:59;;;;;;;;;;;21.10;80.40;;;;;;4899889;29;19951;-76
2022/08/06 07:25:26;;;;;;;;;;;21.30;80.10;;;;;;4900903;29;19911;-76
2022/08/06 07:27:52;;;;;;;;;;;21.40;79.70;;;;;;4900946;29;19911;-77
2022/08/06 07:30:19;;;;;;;;;;;21.30;79.30;;;;;;4899991;29;19923;-77
2022/08/06 07:32:45;;;;;;;;;;;21.10;80.10;;;;;;4895236;29;19912;-76
2022/08/06 07:35:12;;;;;;;;;;;21.10;80.40;;;;;;4889280;29;20220;-77
2022/08/06 07:37:40;;;;;;;;;;;21.30;80.70;;;;;;4896399;29;20243;-75
2022/08/06 07:40:06;;;;;;;;;;;21.20;79.90;;;;;;4867398;29;19911;-75
2022/08/06 07:42:33;;;;;;;;;;;21.20;79.70;;;;;;4882898;29;19988;-75
2022/08/06 07:45:00;;;;;;;;;;;21.00;80.30;;;;;;4880702;29;19912;-77
2022/08/06 07:47:29;;;;;;;;;;;21.00;80.00;;;;;;4879186;29;19918;-75
2022/08/06 07:49:56;;;;;;;;;;;21.00;80.30;;;;;;4880909;29;19955;-75
2022/08/06 07:52:22;;;;;;;;;;;21.40;80.20;;;;;;4880793;29;19954;-75
2022/08/06 07:54:48;;;;;;;;;;;21.70;79.30;;;;;;4879042;29;20154;-76
2022/08/06 07:57:14;;;;;;;;;;;21.80;78.20;;;;;;4882908;29;19936;-74
2022/08/06 07:59:40;;;;;;;;;;;21.90;77.90;;;;;;4883814;29;20197;-74
2022/08/06 08:02:07;;;;;;;;;;;22.10;77.50;;;;;;4887908;29;19927;-74
2022/08/06 08:07:17;;;;;;;;;;;22.20;76.70;;;;;;4906382;29;19946;-75
2022/08/06 08:09:43;;;;;;;;;;;22.10;77.00;;;;;;4906310;29;19907;-74
2022/08/06 08:12:13;;;;;;;;;;;22.00;76.80;;;;;;4907056;29;19911;-74
2022/08/06 08:14:39;;;;;;;;;;;21.70;76.90;;;;;;4906470;29;19934;-74
2022/08/06 08:17:05;;;;;;;;;;;21.60;78.20;;;;;;4904735;29;19943;-74
2022/08/06 08:19:32;;;;;;;;;;;21.50;77.50;;;;;;4906669;29;19914;-75
2022/08/06 08:21:58;;;;;;;;;;;21.30;78.20;;;;;;4888750;29;20193;-76
2022/08/06 08:24:25;;;;;;;;;;;21.40;78.60;;;;;;4905177;29;19912;-76
2022/08/06 08:26:51;;;;;;;;;;;21.30;78.70;;;;;;4905148;29;19915;-74
2022/08/06 08:29:16;;;;;;;;;;;21.30;79.00;;;;;;4904385;29;19911;-74
2022/08/06 08:31:42;;;;;;;;;;;21.40;79.00;;;;;;4901863;29;19954;-75
2022/08/06 08:34:08;;;;;;;;;;;21.50;78.00;;;;;;4903370;29;19912;-75
2022/08/06 08:36:34;;;;;;;;;;;21.50;77.80;;;;;;4902280;29;19961;-75
2022/08/06 08:39:01;;;;;;;;;;;21.60;78.10;;;;;;4901290;29;19911;-75
2022/08/06 08:41:35;;;;;;;;;;;21.90;77.80;;;;;;4886525;29;19970;-74
2022/08/06 08:44:02;;;;;;;;;;;22.20;75.90;;;;;;4901596;29;19979;-75
2022/08/06 08:46:29;;;;;;;;;;;22.50;74.40;;;;;;4900243;29;19912;-75
2022/08/06 08:48:57;;;;;;;;;;;22.80;74.00;;;;;;4883897;29;20037;-74
2022/08/06 08:51:24;;;;;;;;;;;23.00;73.80;;;;;;4899883;29;19923;-75
2022/08/06 08:53:52;;;;;;;;;;;23.30;72.70;;;;;;4883339;29;19911;-74
2022/08/06 08:56:18;;;;;;;;;;;23.70;71.80;;;;;;4902083;29;19926;-77
2022/08/06 08:58:45;;;;;;;;;;;23.60;71.60;;;;;;4900409;29;19915;-76
2022/08/06 09:01:11;;;;;;;;;;;23.40;71.80;;;;;;4897484;29;19914;-75
2022/08/06 09:03:38;;;;;;;;;;;23.50;72.50;;;;;;4899225;29;19919;-76
2022/08/06 09:06:04;;;;;;;;;;;23.70;71.80;;;;;;4896815;29;19923;-74
2022/08/06 09:08:31;;;;;;;;;;;23.60;71.00;;;;;;4895734;29;19912;-76
2022/08/06 09:10:57;;;;;;;;;;;23.30;71.80;;;;;;4898079;29;19915;-76
2022/08/06 09:13:26;;;;;;;;;;;23.30;71.90;;;;;;4896948;29;19928;-75
2022/08/06 09:15:52;;;;;;;;;;;23.40;70.80;;;;;;4879544;29;19990;-76
2022/08/06 09:18:19;;;;;;;;;;;23.60;70.60;;;;;;4897051;29;20181;-76
2022/08/06 09:20:44;;;;;;;;;;;24.00;69.10;;;;;;4895381;29;20233;-75
2022/08/06 09:23:12;;;;;;;;;;;24.20;68.30;;;;;;4895283;29;19947;-76
2022/08/06 09:25:42;;;;;;;;;;;24.20;67.40;;;;;;4896629;29;19918;-75
2022/08/06 09:28:25;;;;;;;;;;;24.20;68.10;;;;;;4881046;29;19924;-75
2022/08/06 09:31:01;;;;;;;;;;;24.40;67.90;;;;;;4899051;29;19911;-77
2022/08/06 09:33:27;;;;;;;;;;;24.60;67.50;;;;;;4897879;29;20126;-78
2022/08/06 09:36:01;;;;;;;;;;;24.50;67.30;;;;;;4857870;29;19916;-76
2022/08/06 09:38:28;;;;;;;;;;;24.80;66.70;;;;;;4884642;29;19915;-79
2022/08/06 09:41:12;;;;;;;;;;;24.70;66.80;;;;;;4843839;29;19915;-79
2022/08/06 09:43:39;;;;;;;;;;;24.90;66.70;;;;;;4903942;29;19975;-79
2022/08/06 09:46:08;;;;;;;;;;;25.20;66.60;;;;;;4884599;29;19955;-79
2022/08/06 09:48:34;;;;;;;;;;;25.20;65.60;;;;;;4833653;29;19947;-79
2022/08/06 09:51:02;;;;;;;;;;;25.20;65.10;;;;;;4907331;29;19911;-79
2022/08/06 09:53:28;;;;;;;;;;;25.10;64.80;;;;;;4905406;29;19912;-79
2022/08/06 09:55:57;;;;;;;;;;;25.10;65.40;;;;;;4906253;29;20202;-77
2022/08/06 09:58:27;;;;;;;;;;;25.20;65.00;;;;;;4893447;29;20193;-78
2022/08/06 10:00:53;;;;;;;;;;;24.90;64.50;;;;;;4904587;29;19974;-79
2022/08/06 10:03:18;;;;;;;;;;;24.80;65.10;;;;;;4904726;29;19982;-78
2022/08/06 10:05:44;;;;;;;;;;;24.70;64.90;;;;;;4880740;29;19935;-79
2022/08/06 10:08:16;;;;;;;;;;;24.80;65.00;;;;;;4905429;29;19911;-78
2022/08/06 10:10:49;;;;;;;;;;;24.90;65.30;;;;;;4905092;29;19966;-77
2022/08/06 10:13:24;;;;;;;;;;;24.90;64.70;;;;;;4904896;29;19986;-76
2022/08/06 10:15:54;;;;;;;;;;;25.30;64.70;;;;;;4903508;29;19915;-78
2022/08/06 10:18:39;;;;;;;;;;;25.50;63.60;;;;;;4872541;29;19911;-76
2022/08/06 10:21:06;;;;;;;;;;;25.70;63.50;;;;;;4865796;29;19911;-76
2022/08/06 10:23:33;;;;;;;;;;;25.60;63.60;;;;;;4889937;29;19963;-76
2022/08/06 10:26:00;;;;;;;;;;;25.80;63.80;;;;;;4906332;29;19911;-78
2022/08/06 10:28:27;;;;;;;;;;;25.90;62.90;;;;;;4903940;29;19915;-79
2022/08/06 10:30:53;;;;;;;;;;;26.00;63.00;;;;;;4903133;29;20125;-79
2022/08/06 10:33:23;;;;;;;;;;;26.10;62.90;;;;;;4901331;29;19911;-77
2022/08/06 10:35:51;;;;;;;;;;;26.20;61.60;;;;;;4904182;29;20214;-73
2022/08/06 10:38:19;;;;;;;;;;;26.10;60.00;;;;;;4903073;29;20015;-75
2022/08/06 10:40:48;;;;;;;;;;;26.20;59.60;;;;;;4903659;29;20236;-75
2022/08/06 10:43:15;;;;;;;;;;;26.40;60.00;;;;;;4903398;29;19911;-75
2022/08/06 10:45:50;;;;;;;;;;;26.60;59.70;;;;;;4902263;29;20085;-79
2022/08/06 10:48:17;;;;;;;;;;;26.80;59.90;;;;;;4886557;29;20011;-81
2022/08/06 10:50:43;;;;;;;;;;;27.20;60.00;;;;;;4903057;29;19930;-81
2022/08/06 10:53:11;;;;;;;;;;;27.80;59.60;;;;;;4870630;29;20197;-81
2022/08/06 10:55:37;;;;;;;;;;;28.30;58.30;;;;;;4886514;29;19950;-78
2022/08/06 10:58:03;;;;;;;;;;;28.30;57.90;;;;;;4885664;29;19915;-80
2022/08/06 11:00:31;;;;;;;;;;;28.30;57.10;;;;;;4901889;29;19911;-81
2022/08/06 11:02:57;;;;;;;;;;;28.30;57.50;;;;;;4901645;29;20078;-78
2022/08/06 11:05:33;;;;;;;;;;;28.40;57.20;;;;;;4902696;29;19918;-80
2022/08/06 11:08:20;;;;;;;;;;;28.30;57.30;;;;;;4883068;29;20118;-76
2022/08/06 11:11:07;;;;;;;;;;;28.50;57.50;;;;;;4888309;29;19919;-78
2022/08/06 11:13:46;;;;;;;;;;;28.60;56.50;;;;;;4891260;29;19956;-80
2022/08/06 11:16:31;;;;;;;;;;;28.70;56.70;;;;;;4877626;29;19958;-79
2022/08/06 11:19:02;;;;;;;;;;;28.70;56.40;;;;;;4888161;29;19978;-81
2022/08/06 11:21:40;;;;;;;;;;;28.80;56.00;;;;;;4873335;29;20220;-79
2022/08/06 11:24:06;;;;;;;;;;;29.20;55.70;;;;;;4857631;29;20063;-79
2022/08/06 11:26:35;;;;;;;;;;;29.40;55.20;;;;;;4865686;29;19915;-80
2022/08/06 11:29:05;;;;;;;;;;;29.50;54.60;;;;;;4905540;29;19912;-80
2022/08/06 11:31:34;;;;;;;;;;;29.70;54.40;;;;;;4903856;29;19912;-81
2022/08/06 11:34:09;;;;;;;;;;;30.30;54.30;;;;;;4878332;29;19936;-78
2022/08/06 11:36:46;;;;;;;;;;;30.40;53.90;;;;;;4903776;29;19915;-78
2022/08/06 11:39:16;;;;;;;;;;;30.00;54.00;;;;;;4892687;29;19911;-79
2022/08/06 11:41:46;;;;;;;;;;;30.00;54.30;;;;;;4858005;29;20065;-78
2022/08/06 11:44:37;;;;;;;;;;;29.40;55.40;;;;;;4872975;29;19919;-79
2022/08/06 11:47:07;;;;;;;;;;;29.30;55.30;;;;;;4902633;29;19911;-79
2022/08/06 11:49:36;;;;;;;;;;;29.20;55.80;;;;;;4885890;29;19967;-82
2022/08/06 11:52:04;;;;;;;;;;;29.80;55.50;;;;;;4902074;29;20162;-78
2022/08/06 11:54:34;;;;;;;;;;;30.30;54.30;;;;;;4884166;29;21467;-78
2022/08/06 11:57:12;;;;;;;;;;;30.40;53.90;;;;;;4902476;29;20216;-79
2022/08/06 11:59:44;;;;;;;;;;;30.30;54.00;;;;;;4901447;29;19935;-77
2022/08/06 12:02:20;;;;;;;;;;;30.00;54.10;;;;;;4900266;29;19926;-78
2022/08/06 12:04:46;;;;;;;;;;;30.80;53.80;;;;;;4879327;29;19975;-79
2022/08/06 12:07:18;;;;;;;;;;;31.70;52.60;;;;;;4891689;29;19907;-79
2022/08/06 12:09:45;;;;;;;;;;;33.80;50.60;;;;;;4901539;29;19911;-78
2022/08/06 12:12:30;;;;;;;;;;;34.70;49.10;;;;;;4876024;29;19920;-78
2022/08/06 12:14:59;;;;;;;;;;;35.20;48.90;;;;;;4886116;29;19919;-77
2022/08/06 12:17:31;;;;;;;;;;;36.20;47.20;;;;;;4868276;29;19999;-80
2022/08/06 12:22:55;;;;;;;;;;;37.80;46.30;;;;;;4892227;29;19935;-79
2022/08/06 12:25:31;;;;;;;;;;;38.50;45.40;;;;;;4878472;29;20038;-77
2022/08/06 12:28:03;;;;;;;;;;;39.30;45.00;;;;;;4861079;29;19934;-78
2022/08/06 12:30:46;;;;;;;;;;;37.00;45.30;;;;;;4872207;29;19911;-79
2022/08/06 12:33:12;;;;;;;;;;;34.90;47.30;;;;;;4900197;29;20252;-77
2022/08/06 12:35:49;;;;;;;;;;;32.60;49.50;;;;;;4892856;29;19923;-79
2022/08/06 12:38:15;;;;;;;;;;;31.60;51.10;;;;;;4880905;29;20127;-78
2022/08/06 12:40:50;;;;;;;;;;;31.50;51.70;;;;;;4883258;29;19919;-77
2022/08/06 12:43:16;;;;;;;;;;;32.50;51.20;;;;;;4902812;29;19911;-78
2022/08/06 12:45:42;;;;;;;;;;;34.60;48.50;;;;;;4904454;29;19999;-77
2022/08/06 12:48:10;;;;;;;;;;;35.70;47.40;;;;;;4904161;29;19911;-78
2022/08/06 12:50:37;;;;;;;;;;;37.40;46.20;;;;;;4903865;29;19955;-77
2022/08/06 12:53:03;;;;;;;;;;;38.80;44.90;;;;;;4885384;29;20286;-78
2022/08/06 12:55:33;;;;;;;;;;;38.10;43.80;;;;;;4903498;29;19923;-77
2022/08/06 12:58:02;;;;;;;;;;;37.80;44.50;;;;;;4894170;29;20105;-77
2022/08/06 13:00:28;;;;;;;;;;;37.90;44.80;;;;;;4904772;29;19960;-77
2022/08/06 13:02:54;;;;;;;;;;;38.90;44.00;;;;;;4868474;29;19920;-78
2022/08/06 13:05:27;;;;;;;;;;;39.90;42.90;;;;;;4867142;29;19936;-78
2022/08/06 13:07:55;;;;;;;;;;;40.60;42.60;;;;;;4877751;29;19924;-79
2022/08/06 13:10:21;;;;;;;;;;;41.50;42.30;;;;;;4884831;29;20044;-77
2022/08/06 13:12:54;;;;;;;;;;;42.10;41.20;;;;;;4867159;29;19912;-78
2022/08/06 13:15:19;;;;;;;;;;;42.80;40.90;;;;;;4886378;29;19926;-77
2022/08/06 13:18:00;;;;;;;;;;;42.70;40.30;;;;;;4904156;29;20137;-77
2022/08/06 13:20:34;;;;;;;;;;;43.40;39.70;;;;;;4904518;29;20101;-77
2022/08/06 13:23:00;;;;;;;;;;;43.50;39.90;;;;;;4904260;29;19979;-77
2022/08/06 13:25:26;;;;;;;;;;;45.10;39.10;;;;;;4906475;29;19911;-79
2022/08/06 13:28:06;;;;;;;;;;;44.30;39.20;;;;;;4915980;29;19918;-77
2022/08/06 13:30:32;;;;;;;;;;;44.00;39.40;;;;;;4911996;29;19943;-77
2022/08/06 13:33:10;;;;;;;;;;;41.30;40.40;;;;;;4903341;29;19961;-78
2022/08/06 13:35:36;;;;;;;;;;;38.60;42.10;;;;;;4909103;29;19926;-77
2022/08/06 13:38:01;;;;;;;;;;;39.60;42.40;;;;;;4909080;29;19958;-78
2022/08/06 13:40:36;;;;;;;;;;;41.30;41.40;;;;;;4906963;29;19918;-77
2022/08/06 13:43:02;;;;;;;;;;;42.40;40.60;;;;;;4891134;29;19911;-78
2022/08/06 13:45:28;;;;;;;;;;;44.20;39.80;;;;;;4906288;29;20193;-78
2022/08/06 13:48:09;;;;;;;;;;;44.00;39.80;;;;;;4879486;29;19911;-78
2022/08/06 13:50:39;;;;;;;;;;;43.30;39.70;;;;;;4881648;29;19911;-78
2022/08/06 13:53:07;;;;;;;;;;;43.20;39.80;;;;;;4890077;29;19918;-78
2022/08/06 13:55:34;;;;;;;;;;;43.20;39.60;;;;;;4865796;29;19916;-78
2022/08/06 13:58:00;;;;;;;;;;;44.60;38.90;;;;;;4890790;29;19927;-79
2022/08/06 14:00:32;;;;;;;;;;;44.90;38.60;;;;;;4889419;29;19920;-79
2022/08/06 14:03:23;;;;;;;;;;;45.10;38.30;;;;;;4892653;29;19971;-78
2022/08/06 14:05:49;;;;;;;;;;;45.70;38.40;;;;;;4898688;29;19915;-78
2022/08/06 14:08:14;;;;;;;;;;;46.30;37.80;;;;;;4905698;29;19970;-78
2022/08/06 14:10:40;;;;;;;;;;;46.10;37.50;;;;;;4889380;29;19911;-78
2022/08/06 14:13:18;;;;;;;;;;;44.90;37.70;;;;;;4906692;29;20548;-78
2022/08/06 14:15:44;;;;;;;;;;;44.30;38.00;;;;;;4904575;29;20253;-78
2022/08/06 14:18:10;;;;;;;;;;;43.90;38.00;;;;;;4903864;29;19951;-79
2022/08/06 14:20:39;;;;;;;;;;;45.60;37.80;;;;;;4888014;29;19974;-75
2022/08/06 14:23:04;;;;;;;;;;;46.80;37.30;;;;;;4904580;29;19975;-77
2022/08/06 14:25:30;;;;;;;;;;;46.80;37.30;;;;;;4902983;29;19968;-79
2022/08/06 14:27:56;;;;;;;;;;;46.60;36.90;;;;;;4887321;29;19974;-79
2022/08/06 14:30:22;;;;;;;;;;;45.60;37.40;;;;;;4903389;29;22289;-78
2022/08/06 14:32:47;;;;;;;;;;;45.50;37.90;;;;;;4901767;29;19911;-78
2022/08/06 14:35:14;;;;;;;;;;;45.40;37.60;;;;;;4901271;29;19915;-78
2022/08/06 14:37:42;;;;;;;;;;;46.10;37.20;;;;;;4902645;29;20078;-78
2022/08/06 14:40:08;;;;;;;;;;;46.70;36.90;;;;;;4884842;29;19927;-77
2022/08/06 14:45:19;;;;;;;;;;;47.00;36.70;;;;;;4904101;29;19911;-77
2022/08/06 14:47:44;;;;;;;;;;;46.60;36.50;;;;;;4904648;29;19911;-79
2022/08/06 14:50:22;;;;;;;;;;;44.60;37.60;;;;;;4904569;29;19919;-80
2022/08/06 14:53:12;;;;;;;;;;;42.90;37.80;;;;;;4906203;29;19918;-79
2022/08/06 14:55:38;;;;;;;;;;;43.30;37.70;;;;;;4901946;29;19966;-78
2022/08/06 14:58:04;;;;;;;;;;;43.70;37.70;;;;;;4894826;29;19908;-76
2022/08/06 15:00:29;;;;;;;;;;;44.60;37.60;;;;;;4869449;29;20083;-77
2022/08/06 15:02:58;;;;;;;;;;;45.50;36.80;;;;;;4884616;29;20018;-77
2022/08/06 15:05:23;;;;;;;;;;;46.10;36.60;;;;;;4901288;29;20221;-78
2022/08/06 15:07:49;;;;;;;;;;;47.40;36.70;;;;;;4893763;29;19963;-79
2022/08/06 15:10:39;;;;;;;;;;;46.70;35.90;;;;;;4902661;29;19934;-78
2022/08/06 15:13:06;;;;;;;;;;;45.30;37.10;;;;;;4902520;29;20224;-78
2022/08/06 15:15:32;;;;;;;;;;;45.60;37.00;;;;;;4900641;29;21787;-77
2022/08/06 15:17:58;;;;;;;;;;;45.40;36.60;;;;;;4900528;29;19983;-76
2022/08/06 15:20:23;;;;;;;;;;;45.90;36.70;;;;;;4891067;29;20208;-76
2022/08/06 15:22:49;;;;;;;;;;;46.80;35.90;;;;;;4883700;29;20343;-77
2022/08/06 15:25:17;;;;;;;;;;;46.60;36.10;;;;;;4897962;29;19974;-76
2022/08/06 15:27:46;;;;;;;;;;;46.70;35.60;;;;;;4898321;29;19918;-77
2022/08/06 15:30:12;;;;;;;;;;;46.50;36.10;;;;;;4882969;29;19952;-77
2022/08/06 15:32:38;;;;;;;;;;;45.50;36.00;;;;;;4898636;29;19986;-76
2022/08/06 15:35:04;;;;;;;;;;;45.60;36.70;;;;;;4882221;29;20181;-79
2022/08/06 15:37:30;;;;;;;;;;;46.70;36.70;;;;;;4898445;29;19999;-76
2022/08/06 15:39:57;;;;;;;;;;;48.20;35.90;;;;;;4897382;29;19919;-81
2022/08/06 15:42:23;;;;;;;;;;;46.80;35.60;;;;;;4889085;29;19964;-78
2022/08/06 15:44:49;;;;;;;;;;;45.50;36.60;;;;;;4897794;29;19946;-77
2022/08/06 15:47:14;;;;;;;;;;;45.80;37.20;;;;;;4896793;29;19919;-76
2022/08/06 15:49:43;;;;;;;;;;;47.20;36.20;;;;;;4858980;29;19907;-79
2022/08/06 15:52:08;;;;;;;;;;;47.40;35.50;;;;;;4886611;29;20090;-77
2022/08/06 15:54:35;;;;;;;;;;;48.60;35.90;;;;;;4867299;29;20121;-77
2022/08/06 15:57:01;;;;;;;;;;;48.10;35.20;;;;;;4872588;29;19926;-78
2022/08/06 15:59:26;;;;;;;;;;;48.40;35.10;;;;;;4891498;29;19947;-76
2022/08/06 16:01:52;;;;;;;;;;;47.50;35.30;;;;;;4883308;29;19927;-77
2022/08/06 16:04:18;;;;;;;;;;;47.50;34.90;;;;;;4883858;29;19951;-78
2022/08/06 16:06:43;;;;;;;;;;;47.90;35.10;;;;;;4899889;29;19936;-81
2022/08/06 16:09:09;;;;;;;;;;;48.60;35.00;;;;;;4875072;29;19919;-78
2022/08/06 16:11:35;;;;;;;;;;;47.60;35.10;;;;;;4899765;29;19912;-77
2022/08/06 16:14:01;;;;;;;;;;;48.00;35.30;;;;;;4901255;29;19911;-77
2022/08/06 16:16:26;;;;;;;;;;;48.00;34.80;;;;;;4898773;29;20011;-77
2022/08/06 16:18:52;;;;;;;;;;;46.40;35.00;;;;;;4903009;29;19923;-79
2022/08/06 16:21:18;;;;;;;;;;;45.60;36.10;;;;;;4903546;29;19982;-79
2022/08/06 16:23:43;;;;;;;;;;;44.60;36.40;;;;;;4889045;29;19978;-77
2022/08/06 16:26:09;;;;;;;;;;;42.80;37.30;;;;;;4905975;29;19919;-79
2022/08/06 16:28:34;;;;;;;;;;;42.40;38.00;;;;;;4905323;29;19978;-77
2022/08/06 16:31:01;;;;;;;;;;;43.90;36.90;;;;;;4903898;29;20217;-78
2022/08/06 16:33:27;;;;;;;;;;;44.80;36.80;;;;;;4902591;29;19978;-78
2022/08/06 16:35:52;;;;;;;;;;;46.30;36.20;;;;;;4902758;29;19984;-77
2022/08/06 16:38:18;;;;;;;;;;;46.60;35.40;;;;;;4902971;29;19930;-79
2022/08/06 16:40:43;;;;;;;;;;;46.40;35.30;;;;;;4903741;29;19911;-79
2022/08/06 16:43:09;;;;;;;;;;;46.50;35.50;;;;;;4903092;29;19907;-78
2022/08/06 16:45:35;;;;;;;;;;;46.00;35.60;;;;;;4901927;29;20003;-79
2022/08/06 16:48:01;;;;;;;;;;;45.80;35.20;;;;;;4902479;29;19911;-77
2022/08/06 16:50:26;;;;;;;;;;;46.00;35.40;;;;;;4900255;29;19907;-77
2022/08/06 16:52:52;;;;;;;;;;;45.30;35.60;;;;;;4902725;29;19918;-76
2022/08/06 16:55:18;;;;;;;;;;;43.50;36.00;;;;;;4900781;29;19982;-78
2022/08/06 16:57:44;;;;;;;;;;;41.20;36.60;;;;;;4883667;29;19943;-77
2022/08/06 17:00:15;;;;;;;;;;;39.00;38.00;;;;;;4901956;29;20094;-78
2022/08/06 17:02:41;;;;;;;;;;;37.40;39.00;;;;;;4882126;29;19919;-80
2022/08/06 17:05:08;;;;;;;;;;;36.10;40.20;;;;;;4898107;29;19971;-79
2022/08/06 17:07:38;;;;;;;;;;;35.30;41.60;;;;;;4891997;29;19920;-79
2022/08/06 17:10:04;;;;;;;;;;;34.70;43.20;;;;;;4900318;29;19927;-78
2022/08/06 17:12:30;;;;;;;;;;;33.70;42.90;;;;;;4898229;29;19920;-77
2022/08/06 17:14:56;;;;;;;;;;;33.30;43.80;;;;;;4899502;29;19979;-77
2022/08/06 17:17:25;;;;;;;;;;;33.00;43.30;;;;;;4895686;29;19927;-79
2022/08/06 17:19:50;;;;;;;;;;;32.60;43.80;;;;;;4881023;29;19946;-78
2022/08/06 17:22:17;;;;;;;;;;;32.60;43.80;;;;;;4874789;29;20147;-79
2022/08/06 17:24:42;;;;;;;;;;;32.50;44.00;;;;;;4888923;29;19939;-76
2022/08/06 17:27:09;;;;;;;;;;;31.70;43.80;;;;;;4898271;29;20147;-76
2022/08/06 17:29:35;;;;;;;;;;;31.20;44.40;;;;;;4880889;29;19926;-75
2022/08/06 17:32:01;;;;;;;;;;;30.90;44.50;;;;;;4881334;29;20098;-80
2022/08/06 17:34:26;;;;;;;;;;;30.60;44.70;;;;;;4872766;29;20147;-78
2022/08/06 17:36:52;;;;;;;;;;;30.90;44.50;;;;;;4898951;29;19919;-77
2022/08/06 17:39:18;;;;;;;;;;;31.40;44.40;;;;;;4861693;29;20140;-78
2022/08/06 17:41:49;;;;;;;;;;;32.50;43.60;;;;;;4880981;29;19964;-77
2022/08/06 17:44:18;;;;;;;;;;;33.40;41.90;;;;;;4892453;29;19931;-77
2022/08/06 17:46:43;;;;;;;;;;;34.30;41.30;;;;;;4875910;29;19911;-79
2022/08/06 17:49:11;;;;;;;;;;;34.80;40.60;;;;;;4876210;29;19975;-79
2022/08/06 17:51:37;;;;;;;;;;;35.00;40.20;;;;;;4885284;29;19983;-77
2022/08/06 17:54:03;;;;;;;;;;;34.80;39.70;;;;;;4876255;29;19919;-79
2022/08/06 17:56:29;;;;;;;;;;;34.70;39.70;;;;;;4899785;29;19962;-79
2022/08/06 17:58:55;;;;;;;;;;;34.60;39.70;;;;;;4852427;29;19935;-79
2022/08/06 18:01:20;;;;;;;;;;;34.30;40.20;;;;;;4889566;29;20093;-77
2022/08/06 18:03:47;;;;;;;;;;;33.40;40.40;;;;;;4861796;29;19919;-76
2022/08/06 18:06:33;;;;;;;;;;;32.20;41.20;;;;;;4900293;29;19958;-81
2022/08/06 18:08:59;;;;;;;;;;;31.30;42.20;;;;;;4885110;29;20096;-80
2022/08/06 18:11:26;;;;;;;;;;;30.20;42.90;;;;;;4893728;29;19919;-77
2022/08/06 18:13:51;;;;;;;;;;;29.30;43.60;;;;;;4902979;29;19950;-77
2022/08/06 18:16:17;;;;;;;;;;;28.90;44.20;;;;;;4899906;29;20105;-78
2022/08/06 18:18:45;;;;;;;;;;;28.50;44.40;;;;;;4900689;29;20084;-77
2022/08/06 18:21:14;;;;;;;;;;;28.10;44.50;;;;;;4883893;29;19915;-77
2022/08/06 18:23:40;;;;;;;;;;;27.90;45.00;;;;;;4874013;29;19911;-78
2022/08/06 18:26:05;;;;;;;;;;;27.50;45.00;;;;;;4899795;29;20070;-77
2022/08/06 18:28:31;;;;;;;;;;;27.20;45.70;;;;;;4901221;29;19956;-79
2022/08/06 18:30:57;;;;;;;;;;;26.90;45.90;;;;;;4882986;29;20193;-76
2022/08/06 18:33:22;;;;;;;;;;;26.50;45.80;;;;;;4871322;29;19919;-76
2022/08/06 18:35:53;;;;;;;;;;;26.30;46.00;;;;;;4897000;29;19955;-77
2022/08/06 18:38:22;;;;;;;;;;;26.10;46.30;;;;;;4896497;29;20035;-76
2022/08/06 18:40:48;;;;;;;;;;;25.90;46.70;;;;;;4882334;29;19970;-77
2022/08/06 18:43:13;;;;;;;;;;;25.70;46.50;;;;;;4898544;29;19911;-76
2022/08/06 18:45:39;;;;;;;;;;;25.40;46.40;;;;;;4897037;29;19915;-78
2022/08/06 18:48:05;;;;;;;;;;;25.40;47.10;;;;;;4899317;29;19931;-77
2022/08/06 18:50:33;;;;;;;;;;;25.20;47.00;;;;;;4899015;29;19918;-77
2022/08/06 18:56:35;;;;;;;;;;;24.90;47.30;;;;;;4886566;29;19987;-77
2022/08/06 18:59:16;;;;;;;;;;;24.70;47.50;;;;;;4888515;29;20178;-78
2022/08/06 19:01:41;;;;;;;;;;;24.50;48.30;;;;;;4876809;29;19934;-77
2022/08/06 19:04:08;;;;;;;;;;;24.40;47.70;;;;;;4904936;29;20209;-78
2022/08/06 19:06:40;;;;;;;;;;;24.20;48.20;;;;;;4879472;29;19911;-77
2022/08/06 19:09:08;;;;;;;;;;;24.10;48.60;;;;;;4883479;29;20198;-77
2022/08/06 19:11:34;;;;;;;;;;;24.00;48.60;;;;;;4896490;29;20185;-77
2022/08/06 19:14:01;;;;;;;;;;;23.90;49.60;;;;;;4887369;29;20208;-76
2022/08/06 19:16:28;;;;;;;;;;;23.90;49.00;;;;;;4883906;29;19920;-77
2022/08/06 19:18:54;;;;;;;;;;;23.80;49.20;;;;;;4901369;29;20004;-77
2022/08/06 19:21:20;;;;;;;;;;;23.70;49.50;;;;;;4901439;29;19984;-78
2022/08/06 19:23:46;;;;;;;;;;;23.70;50.00;;;;;;4884180;29;19919;-75
2022/08/06 19:26:11;;;;;;;;;;;23.70;50.00;;;;;;4900963;29;19975;-76
2022/08/06 19:28:38;;;;;;;;;;;23.50;49.70;;;;;;4884743;29;19911;-77
2022/08/06 19:31:05;;;;;;;;;;;23.30;50.30;;;;;;4881817;29;19923;-77
2022/08/06 19:33:30;;;;;;;;;;;23.20;50.50;;;;;;4881493;29;20189;-77
2022/08/06 19:35:56;;;;;;;;;;;23.10;51.10;;;;;;4899445;29;19986;-77
2022/08/06 19:38:21;;;;;;;;;;;23.10;51.20;;;;;;4897353;29;19915;-76